KALM/ALM METAR and TAF weather

Enter ICAO airport designator
Station Type Date Time Source
KALM METAR 2020/03/28 20:55 UTC NOAA

KALM 282055Z AUTO 36006KT 10SM CLR 13/M11 A3009 RMK AO2


Station Type Date Time Source
KALM Decoded METAR 2020/03/28 20:55 UTC NOAA

Alamogordo-White, NM, United States (KALM) 32-50N 105-59W
Mar 28, 2020 - 04:55 PM EDT / 2020.03.28 2055 UTC
Wind: from the N (360 degrees) at 7 MPH (6 KT):0
Visibility: 10 mile(s):0
Sky conditions: clear
Temperature: 55 F (13 C)
Dew Point: 12 F (-11 C)
Relative Humidity: 17%
Pressure (altimeter): 30.09 in. Hg (1018 hPa)
ob: KALM 282055Z AUTO 36006KT 10SM CLR 13/M11 A3009 RMK AO2
cycle: 21

Station Type Date Time Source
KALM TAF UTC NOAA

Error!

Example: see airport list